Time;durP1;ratioP1;P1;durP2;ratioP2;P2;SDS_P1;SDS_P2;PMS_P1;PMS_P2;Temp;Humidity;BMP_temperature;BMP_pressure;BME280_temperature;BME280_humidity;BME280_pressure;Samples;Min_cycle;Max_cycle;Signal;HPM_P1;HPM_P2
2022/08/07 00:01:30;;;;;;;5.70;1.60;;;16.30;99.90;;;;;;5049735;28;20381;-52
2022/08/07 00:03:56;;;;;;;5.30;1.45;;;16.30;99.90;;;;;;5050200;28;20378;-52
2022/08/07 00:06:22;;;;;;;6.90;1.70;;;16.30;99.90;;;;;;5050569;28;20384;-52
2022/08/07 00:08:48;;;;;;;5.60;1.60;;;16.30;99.90;;;;;;5049390;28;20365;-54
2022/08/07 00:11:13;;;;;;;5.30;1.60;;;16.20;99.90;;;;;;5050127;28;20451;-52
2022/08/07 00:13:41;;;;;;;6.70;1.60;;;16.30;99.90;;;;;;5049362;28;20377;-52
2022/08/07 00:16:06;;;;;;;5.50;1.50;;;16.30;99.90;;;;;;5049605;28;20491;-52
2022/08/07 00:18:32;;;;;;;5.80;1.65;;;16.30;99.90;;;;;;5049210;28;20397;-52
2022/08/07 00:21:02;;;;;;;5.30;1.50;;;16.20;99.90;;;;;;5049946;28;20469;-52
2022/08/07 00:23:29;;;;;;;5.50;1.50;;;16.20;99.90;;;;;;5049347;28;20487;-59
2022/08/07 00:25:54;;;;;;;6.50;1.80;;;15.90;99.90;;;;;;5049752;28;20878;-54
2022/08/07 00:28:20;;;;;;;5.83;1.30;;;16.00;99.90;;;;;;5049893;28;20450;-52
2022/08/07 00:30:46;;;;;;;5.80;1.70;;;15.90;99.90;;;;;;5049495;28;20372;-52
2022/08/07 00:33:12;;;;;;;5.60;1.60;;;16.00;99.90;;;;;;5049703;28;20747;-52
2022/08/07 00:35:38;;;;;;;8.00;1.60;;;16.00;99.90;;;;;;5048897;28;20865;-52
2022/08/07 00:38:04;;;;;;;5.70;1.50;;;16.00;99.90;;;;;;5050188;28;20857;-52
2022/08/07 00:40:30;;;;;;;5.60;1.58;;;16.10;99.90;;;;;;5049592;28;20912;-52
2022/08/07 00:42:56;;;;;;;5.40;1.73;;;16.00;99.90;;;;;;5049953;28;20388;-52
2022/08/07 00:45:22;;;;;;;5.10;1.50;;;16.00;99.90;;;;;;5049556;28;20706;-52
2022/08/07 00:47:48;;;;;;;5.32;1.60;;;15.90;99.90;;;;;;5049138;28;20385;-52
2022/08/07 00:50:14;;;;;;;5.65;1.58;;;15.90;99.90;;;;;;5049816;28;20465;-52
2022/08/07 00:52:41;;;;;;;6.43;1.70;;;15.90;99.90;;;;;;5031031;28;20743;-52
2022/08/07 00:55:07;;;;;;;6.10;1.42;;;15.90;99.90;;;;;;5050078;28;20394;-52
2022/08/07 00:57:33;;;;;;;5.90;1.70;;;15.90;99.90;;;;;;5048911;28;20504;-52
2022/08/07 00:59:58;;;;;;;5.37;1.50;;;15.90;99.90;;;;;;5049534;28;20465;-52
2022/08/07 01:02:24;;;;;;;5.40;1.70;;;15.80;99.90;;;;;;5049947;28;20373;-51
2022/08/07 01:04:51;;;;;;;5.53;1.60;;;15.90;99.90;;;;;;5048862;28;20416;-52
2022/08/07 01:07:20;;;;;;;6.10;1.50;;;15.80;99.90;;;;;;5049294;28;20753;-52
2022/08/07 01:09:46;;;;;;;6.20;1.60;;;15.70;99.90;;;;;;5048817;28;20893;-53
2022/08/07 01:12:14;;;;;;;5.38;1.65;;;15.60;99.90;;;;;;5049995;28;20386;-51
2022/08/07 01:14:40;;;;;;;5.50;1.50;;;15.60;99.90;;;;;;5049154;28;20834;-51
2022/08/07 01:17:06;;;;;;;7.22;1.73;;;15.60;99.90;;;;;;5049478;28;20398;-52
2022/08/07 01:19:33;;;;;;;7.50;1.60;;;15.60;99.90;;;;;;5049882;28;20725;-51
2022/08/07 01:21:59;;;;;;;5.63;1.60;;;15.50;99.90;;;;;;5052962;28;20381;-52
2022/08/07 01:24:27;;;;;;;5.67;1.27;;;15.40;99.90;;;;;;5052808;28;20447;-54
2022/08/07 01:26:53;;;;;;;5.68;1.65;;;15.30;99.90;;;;;;5052373;28;20400;-52
2022/08/07 01:29:23;;;;;;;6.78;1.83;;;15.40;99.90;;;;;;5053144;28;20454;-52
2022/08/07 01:31:50;;;;;;;5.50;1.50;;;15.40;99.90;;;;;;5052092;28;20382;-52
2022/08/07 01:34:16;;;;;;;5.82;1.70;;;15.40;99.90;;;;;;5052866;28;20388;-51
2022/08/07 01:36:43;;;;;;;5.53;1.70;;;15.40;99.90;;;;;;5034534;28;20758;-51
2022/08/07 01:39:08;;;;;;;5.30;1.60;;;15.20;99.90;;;;;;5052407;28;20382;-51
2022/08/07 01:41:34;;;;;;;5.63;1.63;;;15.00;99.90;;;;;;5052125;28;20585;-51
2022/08/07 01:44:01;;;;;;;5.80;1.50;;;14.90;99.90;;;;;;5052175;28;20413;-52
2022/08/07 01:46:26;;;;;;;5.85;1.75;;;14.80;99.90;;;;;;5051644;28;20767;-53
2022/08/07 01:48:52;;;;;;;5.80;1.60;;;14.80;99.90;;;;;;5052332;28;20380;-51
2022/08/07 01:51:21;;;;;;;7.60;1.70;;;15.00;99.90;;;;;;5052135;28;20534;-51
2022/08/07 01:53:51;;;;;;;5.85;1.67;;;15.00;1.00;;;;;;5051964;28;20487;-51
2022/08/07 01:56:24;;;;;;;7.40;1.50;;;15.00;1.00;;;;;;5052308;28;20794;-51
2022/08/07 01:58:57;;;;;;;5.68;1.50;;;15.10;1.00;;;;;;5051914;28;20389;-52
2022/08/07 02:01:26;;;;;;;6.50;1.50;;;14.90;1.00;;;;;;5051891;28;20418;-51
2022/08/07 02:04:24;;;;;;;7.30;1.70;;;15.00;1.00;;;;;;5051974;28;20703;-52
2022/08/07 02:06:51;;;;;;;4.90;1.30;;;14.90;1.00;;;;;;5035679;28;20397;-51
2022/08/07 02:09:19;;;;;;;5.97;1.60;;;15.00;1.00;;;;;;5052121;28;20781;-52
2022/08/07 02:11:49;;;;;;;5.63;1.70;;;15.00;1.00;;;;;;5051953;28;20945;-51
2022/08/07 02:14:17;;;;;;;6.18;1.50;;;15.10;1.00;;;;;;5051626;28;20381;-51
2022/08/07 02:16:47;;;;;;;6.20;1.77;;;15.00;1.00;;;;;;5051093;28;20901;-51
2022/08/07 02:19:13;;;;;;;5.85;1.80;;;15.00;1.00;;;;;;5034099;28;20424;-52
2022/08/07 02:21:40;;;;;;;7.20;2.03;;;14.80;1.00;;;;;;5051155;28;20378;-51
2022/08/07 02:24:07;;;;;;;5.32;1.50;;;14.70;1.00;;;;;;5052232;28;20389;-52
2022/08/07 02:26:35;;;;;;;6.60;1.70;;;14.70;15.30;;;;;;5051151;28;21003;-51
2022/08/07 02:29:03;;;;;;;6.78;1.70;;;14.80;7.70;;;;;;5052022;28;20449;-51
2022/08/07 02:31:31;;;;;;;6.05;1.60;;;14.60;1.00;;;;;;5049802;28;20409;-58
2022/08/07 02:33:58;;;;;;;6.75;1.80;;;14.90;1.00;;;;;;5051252;28;20797;-52
2022/08/07 02:36:25;;;;;;;6.10;1.70;;;14.70;1.00;;;;;;5051414;28;20401;-51
2022/08/07 02:38:52;;;;;;;6.20;1.67;;;14.70;1.00;;;;;;5050815;28;20551;-52
2022/08/07 02:41:18;;;;;;;5.20;1.60;;;14.70;1.00;;;;;;5051173;28;20393;-52
2022/08/07 02:43:45;;;;;;;5.53;1.70;;;14.60;1.00;;;;;;5032539;28;20389;-51
2022/08/07 02:46:11;;;;;;;5.30;1.50;;;14.60;1.00;;;;;;5051777;28;20377;-52
2022/08/07 02:48:37;;;;;;;6.90;1.70;;;14.60;1.00;;;;;;5051044;28;20716;-51
2022/08/07 02:51:13;;;;;;;6.03;1.75;;;14.40;1.00;;;;;;5051417;28;20370;-52
2022/08/07 02:53:42;;;;;;;5.80;1.60;;;14.40;1.00;;;;;;5050422;28;20405;-52
2022/08/07 02:56:13;;;;;;;5.47;1.80;;;14.40;1.00;;;;;;5051151;28;20459;-52
2022/08/07 02:58:41;;;;;;;5.85;2.10;;;14.40;1.00;;;;;;5050138;28;20484;-52
2022/08/07 03:01:09;;;;;;;5.40;1.60;;;14.50;1.00;;;;;;5051138;28;20393;-51
2022/08/07 03:03:36;;;;;;;5.40;1.50;;;14.50;1.00;;;;;;5050281;28;20897;-51
2022/08/07 03:06:03;;;;;;;5.55;1.60;;;14.50;1.00;;;;;;5051162;28;20417;-51
2022/08/07 03:08:29;;;;;;;6.20;1.80;;;14.50;1.00;;;;;;5050854;28;20377;-58
2022/08/07 03:10:56;;;;;;;5.10;1.50;;;14.40;1.00;;;;;;5050744;28;20389;-51
2022/08/07 03:13:22;;;;;;;5.70;1.80;;;14.50;1.00;;;;;;5050958;28;20443;-50
2022/08/07 03:15:49;;;;;;;5.30;1.70;;;14.40;99.90;;;;;;5050251;28;20405;-51
2022/08/07 03:18:16;;;;;;;6.00;1.60;;;14.40;99.90;;;;;;5051207;28;20389;-52
2022/08/07 03:20:43;;;;;;;5.40;1.70;;;14.30;99.90;;;;;;5050589;28;20377;-53
2022/08/07 03:23:09;;;;;;;6.20;1.70;;;14.20;1.00;;;;;;5050561;28;20396;-51
2022/08/07 03:25:39;;;;;;;6.18;1.60;;;14.10;99.90;;;;;;5050586;28;20401;-51
2022/08/07 03:28:08;;;;;;;5.20;1.45;;;14.00;99.90;;;;;;5050843;28;20454;-51
2022/08/07 03:30:34;;;;;;;6.60;1.60;;;13.90;99.90;;;;;;5049943;28;20407;-51
2022/08/07 03:33:01;;;;;;;5.70;1.70;;;13.90;1.00;;;;;;5050669;28;20466;-51
2022/08/07 03:35:28;;;;;;;5.03;1.50;;;14.00;1.00;;;;;;5050509;28;20385;-51
2022/08/07 03:38:00;;;;;;;5.80;1.50;;;14.00;99.90;;;;;;5050136;28;20388;-54
2022/08/07 03:40:27;;;;;;;8.60;2.10;;;14.00;99.90;;;;;;5050293;28;20391;-51
2022/08/07 03:42:54;;;;;;;5.50;1.60;;;14.10;99.90;;;;;;5049828;28;20382;-52
2022/08/07 03:45:21;;;;;;;6.30;1.58;;;14.00;99.90;;;;;;5050106;28;20377;-51
2022/08/07 03:47:48;;;;;;;5.70;1.67;;;14.00;1.00;;;;;;5049570;28;20468;-51
2022/08/07 03:50:16;;;;;;;5.78;2.00;;;14.00;1.00;;;;;;5050475;28;20373;-51
2022/08/07 03:52:43;;;;;;;5.22;1.40;;;14.00;1.00;;;;;;5049387;28;20476;-51
2022/08/07 03:55:09;;;;;;;6.70;1.80;;;14.00;1.00;;;;;;5050155;28;20444;-51
2022/08/07 03:57:37;;;;;;;5.55;1.50;;;13.80;72.80;;;;;;5049386;28;20929;-52
2022/08/07 04:00:04;;;;;;;7.63;1.80;;;13.70;99.90;;;;;;5050219;28;20381;-52
2022/08/07 04:02:30;;;;;;;5.30;1.65;;;13.80;99.90;;;;;;5049783;28;20373;-55
2022/08/07 04:04:55;;;;;;;6.30;1.90;;;13.80;99.90;;;;;;5049921;28;20855;-52
2022/08/07 04:07:22;;;;;;;7.10;1.67;;;13.80;99.90;;;;;;5032561;28;20393;-52
2022/08/07 04:09:48;;;;;;;6.00;1.60;;;13.80;99.90;;;;;;5048964;28;20727;-52
2022/08/07 04:12:15;;;;;;;7.28;1.80;;;13.80;99.90;;;;;;5050039;28;20378;-52
2022/08/07 04:14:42;;;;;;;7.00;1.70;;;13.80;99.90;;;;;;5049223;28;20370;-51
2022/08/07 04:17:08;;;;;;;5.00;1.50;;;13.70;1.00;;;;;;5049936;28;20463;-52
2022/08/07 04:19:35;;;;;;;6.60;1.80;;;13.70;99.90;;;;;;5049264;28;20933;-52
2022/08/07 04:22:01;;;;;;;6.63;1.80;;;13.70;99.90;;;;;;5049753;28;20858;-52
2022/08/07 04:24:28;;;;;;;5.70;1.80;;;13.70;99.90;;;;;;5049784;28;20390;-53
2022/08/07 04:26:54;;;;;;;6.63;1.80;;;13.80;99.90;;;;;;5049738;28;20893;-52
2022/08/07 04:29:19;;;;;;;6.18;2.20;;;13.70;1.00;;;;;;5049738;28;20479;-51
2022/08/07 04:31:45;;;;;;;6.20;1.93;;;13.60;1.00;;;;;;5048754;28;20455;-51
2022/08/07 04:34:11;;;;;;;5.60;1.70;;;13.70;99.90;;;;;;5049994;28;20386;-52
2022/08/07 04:36:39;;;;;;;5.60;1.90;;;13.70;1.00;;;;;;5048992;28;20401;-52
2022/08/07 04:39:05;;;;;;;6.90;1.83;;;13.80;1.00;;;;;;5049738;28;20377;-51
2022/08/07 04:41:31;;;;;;;5.40;1.90;;;13.80;1.00;;;;;;5049493;28;20885;-58
2022/08/07 04:43:57;;;;;;;7.78;2.10;;;13.80;99.90;;;;;;5048974;28;20389;-51
2022/08/07 04:46:34;;;;;;;5.55;1.88;;;13.90;99.90;;;;;;5049579;28;20386;-51
2022/08/07 04:49:21;;;;;;;5.32;1.80;;;14.00;99.90;;;;;;5049934;28;20393;-51
2022/08/07 04:51:47;;;;;;;6.72;1.90;;;14.10;91.50;;;;;;5048587;28;20468;-51
2022/08/07 04:54:44;;;;;;;6.40;1.80;;;14.20;1.00;;;;;;5050102;28;20452;-51
2022/08/07 04:57:26;;;;;;;6.67;2.07;;;14.30;1.00;;;;;;5047698;28;20487;-52
2022/08/07 05:00:09;;;;;;;6.05;1.50;;;14.60;1.00;;;;;;5052855;28;20389;-52
2022/08/07 05:02:41;;;;;;;5.90;2.00;;;15.00;99.90;;;;;;5052449;28;20427;-52
2022/08/07 05:05:25;;;;;;;6.80;1.95;;;15.50;1.00;;;;;;5053041;28;20516;-52
2022/08/07 05:08:04;;;;;;;5.82;1.90;;;16.20;1.00;;;;;;5052395;28;20419;-52
2022/08/07 05:10:44;;;;;;;6.25;2.00;;;17.30;1.00;;;;;;5053156;28;20370;-58
2022/08/07 05:13:35;;;;;;;6.22;1.90;;;18.30;1.00;;;;;;5052836;28;20377;-52
2022/08/07 05:16:04;;;;;;;5.30;1.57;;;19.30;99.90;;;;;;5053342;28;20397;-52
2022/08/07 05:18:35;;;;;;;6.38;1.70;;;20.20;1.00;;;;;;5053134;28;20459;-60
2022/08/07 05:21:08;;;;;;;6.70;1.50;;;21.20;1.00;;;;;;5053582;28;20377;-52
2022/08/07 05:23:34;;;;;;;5.57;1.70;;;21.90;1.00;;;;;;5052805;28;20460;-53
2022/08/07 05:26:02;;;;;;;5.63;1.83;;;22.20;1.00;;;;;;5053583;28;20802;-52
2022/08/07 05:28:30;;;;;;;7.67;1.90;;;22.60;1.00;;;;;;5052632;28;20410;-52
2022/08/07 05:30:57;;;;;;;5.45;1.60;;;;;;;;;;5053215;28;20404;-53
2022/08/07 05:33:23;;;;;;;5.80;1.70;;;;;;;;;;5053149;28;20849;-53
2022/08/07 05:35:51;;;;;;;7.07;1.70;;;;;;;;;;5052117;28;20917;-53
2022/08/07 05:38:18;;;;;;;6.40;1.83;;;24.70;35.30;;;;;;5052029;28;20393;-53
2022/08/07 05:40:44;;;;;;;5.70;1.80;;;25.70;1.00;;;;;;5033931;28;20393;-50
2022/08/07 05:43:10;;;;;;;5.30;1.50;;;26.20;1.00;;;;;;5052351;28;20393;-50
2022/08/07 05:45:36;;;;;;;6.47;1.50;;;26.60;1.00;;;;;;5052499;28;20381;-51
2022/08/07 05:48:03;;;;;;;5.93;2.10;;;27.00;1.00;;;;;;5052083;28;20435;-50
2022/08/07 05:50:30;;;;;;;6.10;2.00;;;27.10;1.00;;;;;;5052136;28;20412;-51
2022/08/07 05:52:56;;;;;;;6.20;2.90;;;27.50;99.90;;;;;;5051506;28;20369;-50
2022/08/07 05:55:22;;;;;;;6.43;3.20;;;27.60;99.90;;;;;;5050635;28;20403;-51
2022/08/07 05:57:49;;;;;;;6.90;3.20;;;28.40;99.90;;;;;;5051640;28;20451;-54
2022/08/07 06:00:16;;;;;;;6.60;3.97;;;28.50;99.90;;;;;;5051233;28;20405;-51
2022/08/07 06:02:46;;;;;;;6.47;3.47;;;28.50;99.90;;;;;;5051651;28;20389;-53
2022/08/07 06:05:12;;;;;;;6.35;3.47;;;;;;;;;;5043450;28;20909;-54
2022/08/07 06:07:39;;;;;;;6.30;3.20;;;30.40;1.00;;;;;;5051477;28;20901;-54
2022/08/07 06:10:05;;;;;;;5.90;3.53;;;31.30;99.90;;;;;;5050630;28;20716;-53
2022/08/07 06:12:31;;;;;;;7.25;4.10;;;31.40;99.90;;;;;;5051562;28;20401;-54
2022/08/07 06:14:59;;;;;;;7.03;3.92;;;31.00;99.90;;;;;;5050134;28;20480;-54
2022/08/07 06:17:26;;;;;;;6.20;3.97;;;31.50;99.90;;;;;;5051963;28;20412;-54
2022/08/07 06:19:53;;;;;;;6.80;4.50;;;30.70;99.90;;;;;;5051077;28;20636;-54
2022/08/07 06:22:18;;;;;;;6.60;4.20;;;31.80;99.90;;;;;;5051186;28;20398;-53
2022/08/07 06:24:45;;;;;;;7.90;5.43;;;32.20;99.90;;;;;;5050079;28;20396;-55
2022/08/07 06:27:20;;;;;;;8.43;4.75;;;32.20;99.90;;;;;;5050812;28;20443;-53
2022/08/07 06:29:45;;;;;;;7.50;5.80;;;32.50;99.90;;;;;;5050367;28;20454;-53
2022/08/07 06:32:11;;;;;;;8.17;5.40;;;32.50;99.90;;;;;;5050838;28;20421;-54
2022/08/07 06:34:36;;;;;;;8.00;6.00;;;32.50;99.90;;;;;;5049974;28;20735;-54
2022/08/07 06:37:02;;;;;;;8.93;5.57;;;32.40;99.90;;;;;;5051313;28;20415;-53
2022/08/07 06:39:28;;;;;;;7.80;5.60;;;33.00;99.90;;;;;;5050563;28;20822;-53
2022/08/07 06:42:04;;;;;;;7.40;5.20;;;32.60;99.90;;;;;;5050412;28;20386;-53
2022/08/07 06:44:31;;;;;;;7.10;5.40;;;32.40;99.90;;;;;;5051025;28;20401;-53
2022/08/07 06:46:57;;;;;;;7.00;4.60;;;33.30;99.90;;;;;;5051426;28;20958;-53
2022/08/07 06:49:23;;;;;;;7.40;4.88;;;32.90;99.90;;;;;;5048295;28;20555;-53
2022/08/07 06:51:50;;;;;;;8.03;4.70;;;32.20;99.90;;;;;;5049891;28;20386;-53
2022/08/07 06:54:17;;;;;;;7.72;4.60;;;32.30;99.90;;;;;;5050652;28;20872;-54
2022/08/07 06:56:49;;;;;;;7.07;5.47;;;31.50;99.90;;;;;;5050370;28;20509;-52
2022/08/07 06:59:20;;;;;;;8.83;5.70;;;30.80;99.90;;;;;;5050102;28;20406;-53
2022/08/07 07:01:48;;;;;;;7.47;5.00;;;31.70;99.90;;;;;;5049724;28;20404;-53
2022/08/07 07:04:14;;;;;;;7.70;5.00;;;31.70;99.90;;;;;;5050275;28;20527;-53
2022/08/07 07:06:41;;;;;;;7.80;5.28;;;33.40;99.90;;;;;;5049341;28;20459;-53
2022/08/07 07:09:21;;;;;;;7.63;5.13;;;34.90;99.90;;;;;;5050547;28;20450;-54
2022/08/07 07:12:05;;;;;;;7.65;5.30;;;35.20;99.90;;;;;;5049522;28;20393;-55
2022/08/07 07:15:01;;;;;;;8.20;5.30;;;35.30;99.90;;;;;;5049125;28;20411;-53
2022/08/07 07:17:42;;;;;;;7.22;5.43;;;34.90;99.90;;;;;;5044350;28;20445;-52
2022/08/07 07:20:15;;;;;;;8.27;5.50;;;33.40;99.90;;;;;;5050094;28;20407;-56
2022/08/07 07:22:41;;;;;;;7.38;5.32;;;33.20;99.90;;;;;;5049472;28;20394;-52
2022/08/07 07:25:09;;;;;;;9.63;4.80;;;34.20;99.90;;;;;;5049832;28;20488;-54
2022/08/07 07:27:41;;;;;;;7.90;5.40;;;34.50;99.90;;;;;;5048883;28;20425;-53
2022/08/07 07:30:08;;;;;;;9.52;6.30;;;35.40;99.90;;;;;;5049944;28;20782;-52
2022/08/07 07:32:37;;;;;;;7.80;5.18;;;34.80;99.90;;;;;;5049977;28;20381;-59
2022/08/07 07:35:04;;;;;;;7.10;4.63;;;34.40;99.90;;;;;;5049714;28;20875;-54
2022/08/07 07:37:32;;;;;;;7.43;5.03;;;35.20;99.90;;;;;;5031341;28;20748;-53
2022/08/07 07:40:02;;;;;;;7.20;4.68;;;36.30;99.90;;;;;;5049445;28;20424;-53
2022/08/07 07:42:30;;;;;;;8.48;5.05;;;35.40;99.90;;;;;;5048429;28;20481;-54
2022/08/07 07:44:58;;;;;;;7.82;4.90;;;35.30;99.90;;;;;;5049182;28;20409;-53
2022/08/07 07:47:25;;;;;;;7.63;5.10;;;35.20;99.90;;;;;;5049477;28;20417;-53
2022/08/07 07:49:52;;;;;;;7.20;5.70;;;35.00;99.90;;;;;;5049372;28;20405;-53
2022/08/07 07:52:20;;;;;;;8.85;5.40;;;34.40;99.90;;;;;;5063135;28;20395;-54
2022/08/07 07:54:48;;;;;;;8.07;6.30;;;34.50;99.90;;;;;;5052546;28;20858;-53
2022/08/07 07:57:16;;;;;;;7.15;4.55;;;34.50;99.90;;;;;;5049012;28;20782;-53
2022/08/07 07:59:42;;;;;;;7.70;5.20;;;34.40;99.90;;;;;;5045407;28;20874;-53
2022/08/07 08:02:10;;;;;;;7.43;3.20;;;34.20;99.90;;;;;;5049758;28;20393;-53
2022/08/07 08:04:36;;;;;;;6.32;2.88;;;33.90;99.90;;;;;;5045854;28;20393;-60
2022/08/07 08:07:03;;;;;;;6.47;2.80;;;34.00;99.90;;;;;;5049319;28;20393;-53
2022/08/07 08:09:30;;;;;;;7.90;2.63;;;34.90;99.90;;;;;;5049373;28;20475;-58
2022/08/07 08:11:57;;;;;;;7.00;2.80;;;35.60;99.90;;;;;;5048603;28;20390;-53
2022/08/07 08:14:23;;;;;;;7.00;3.15;;;35.20;99.90;;;;;;5039668;28;20393;-53
2022/08/07 08:16:50;;;;;;;6.60;2.93;;;35.20;99.90;;;;;;5048553;28;20411;-53
2022/08/07 08:19:21;;;;;;;6.78;2.70;;;35.80;99.90;;;;;;5049433;28;20397;-53
2022/08/07 08:27:30;;;;;;;6.10;2.83;;;36.90;99.90;;;;;;5049292;28;20417;-53
2022/08/07 08:30:05;;;;;;;7.15;4.45;;;36.80;99.90;;;;;;5052363;28;20377;-53
2022/08/07 08:32:36;;;;;;;6.70;4.50;;;37.60;99.90;;;;;;5053184;28;20385;-53
2022/08/07 08:35:02;;;;;;;6.60;4.20;;;37.70;99.90;;;;;;5053498;28;20393;-53
2022/08/07 08:37:33;;;;;;;8.00;3.97;;;36.80;99.90;;;;;;5053516;28;20492;-55
2022/08/07 08:40:00;;;;;;;6.18;3.35;;;36.40;99.90;;;;;;5052738;28;20909;-53
2022/08/07 08:42:35;;;;;;;6.00;4.10;;;36.30;99.90;;;;;;5054942;28;20405;-55
2022/08/07 08:45:32;;;;;;;6.83;3.60;;;36.70;99.90;;;;;;5052871;28;20377;-54
2022/08/07 08:48:23;;;;;;;6.50;3.70;;;36.30;99.90;;;;;;5052199;28;20844;-54
2022/08/07 08:51:25;;;;;;;6.03;3.80;;;35.70;99.90;;;;;;5052448;28;20385;-54
2022/08/07 08:54:05;;;;;;;5.50;2.60;;;35.70;99.90;;;;;;5019616;28;20397;-54
2022/08/07 08:56:43;;;;;;;5.80;4.00;;;35.60;99.90;;;;;;5052524;28;20894;-54
2022/08/07 08:59:31;;;;;;;5.90;2.60;;;35.80;99.90;;;;;;5052024;28;20405;-54
2022/08/07 09:02:16;;;;;;;5.50;1.60;;;36.30;99.90;;;;;;5052175;28;20415;-54
2022/08/07 09:05:13;;;;;;;5.65;1.50;;;36.30;99.90;;;;;;5052243;28;20385;-54
2022/08/07 09:08:29;;;;;;;5.00;1.60;;;36.40;99.90;;;;;;5053458;28;20505;-53
2022/08/07 09:11:33;;;;;;;4.95;1.08;;;36.10;99.90;;;;;;4997876;28;20406;-53
2022/08/07 09:14:11;;;;;;;5.03;1.20;;;36.00;99.90;;;;;;5045363;28;20425;-53
2022/08/07 09:16:46;;;;;;;7.75;1.40;;;35.50;99.90;;;;;;5052326;28;20715;-57
2022/08/07 09:19:55;;;;;;;5.18;1.38;;;36.30;99.90;;;;;;5051476;28;20412;-56
2022/08/07 09:22:36;;;;;;;5.80;1.40;;;36.00;99.90;;;;;;5052267;28;20755;-56
2022/08/07 09:25:14;;;;;;;6.00;1.30;;;36.20;99.90;;;;;;5051989;28;20457;-56
2022/08/07 09:27:56;;;;;;;5.10;1.23;;;35.80;99.90;;;;;;5033943;28;20840;-57
2022/08/07 09:30:25;;;;;;;5.90;1.60;;;36.50;99.90;;;;;;5048503;28;20400;-56
2022/08/07 09:33:13;;;;;;;5.70;1.50;;;36.40;99.90;;;;;;5051352;28;20961;-56
2022/08/07 09:35:54;;;;;;;5.40;1.30;;;36.20;99.90;;;;;;5052139;28;20382;-56
2022/08/07 09:38:28;;;;;;;6.00;1.33;;;35.70;99.90;;;;;;5051566;28;20492;-56
2022/08/07 09:41:32;;;;;;;5.10;1.30;;;34.90;99.90;;;;;;5051409;28;20412;-56
2022/08/07 09:44:17;;;;;;;5.03;1.40;;;35.50;99.90;;;;;;5051399;28;20474;-56
2022/08/07 09:47:19;;;;;;;5.22;1.27;;;35.90;99.90;;;;;;5051794;28;20758;-57
2022/08/07 09:49:55;;;;;;;5.30;1.30;;;35.90;99.90;;;;;;5043604;28;20437;-56
2022/08/07 09:52:44;;;;;;;6.30;2.10;;;36.60;99.90;;;;;;5046958;28;20393;-57
2022/08/07 09:55:18;;;;;;;5.10;1.60;;;35.80;99.90;;;;;;5052183;28;20866;-56
2022/08/07 09:57:54;;;;;;;7.40;3.63;;;35.20;99.90;;;;;;5051264;28;20463;-57
2022/08/07 10:00:23;;;;;;;5.55;1.30;;;34.10;99.90;;;;;;5051503;28;20398;-56
2022/08/07 10:03:14;;;;;;;4.90;1.33;;;34.80;99.90;;;;;;5049818;28;20401;-55
2022/08/07 10:06:08;;;;;;;5.03;1.10;;;35.40;99.90;;;;;;5051914;28;20448;-56
2022/08/07 10:09:04;;;;;;;5.00;1.55;;;35.40;99.90;;;;;;5050915;28;20480;-56
2022/08/07 10:11:42;;;;;;;7.43;3.15;;;34.90;99.90;;;;;;5050894;28;20448;-57
2022/08/07 10:14:32;;;;;;;4.88;1.17;;;35.70;99.90;;;;;;5051148;28;20396;-57
2022/08/07 10:17:16;;;;;;;6.37;1.57;;;34.90;99.90;;;;;;5051353;28;21021;-57
2022/08/07 10:20:00;;;;;;;5.70;1.55;;;35.10;99.90;;;;;;5051170;28;20392;-57
2022/08/07 10:22:52;;;;;;;5.10;1.30;;;35.60;99.90;;;;;;5051663;28;20388;-57
2022/08/07 10:25:36;;;;;;;5.30;1.30;;;36.00;99.90;;;;;;5040755;28;20397;-57
2022/08/07 10:28:33;;;;;;;4.75;1.15;;;36.40;99.90;;;;;;5050954;28;20452;-58
2022/08/07 10:31:23;;;;;;;4.93;1.35;;;36.40;99.90;;;;;;5051387;28;20434;-58
2022/08/07 10:34:10;;;;;;;5.10;1.38;;;36.00;99.90;;;;;;5050777;28;20423;-58
2022/08/07 10:36:50;;;;;;;5.40;1.70;;;35.50;99.90;;;;;;5051843;28;20539;-57
2022/08/07 10:39:27;;;;;;;5.00;1.50;;;35.10;99.90;;;;;;5051589;28;20396;-57
2022/08/07 10:42:01;;;;;;;6.80;4.60;;;34.50;99.90;;;;;;5050792;28;20373;-57
2022/08/07 10:44:52;;;;;;;8.75;4.80;;;33.30;99.90;;;;;;5051384;28;20460;-57
2022/08/07 10:47:30;;;;;;;5.60;3.55;;;33.00;99.90;;;;;;5037257;28;20431;-56
2022/08/07 10:50:28;;;;;;;5.82;3.80;;;32.10;99.90;;;;;;5033412;28;20381;-57
2022/08/07 10:53:05;;;;;;;7.20;6.00;;;30.60;99.90;;;;;;5067971;28;20929;-57
2022/08/07 10:56:06;;;;;;;6.60;4.13;;;30.00;99.90;;;;;;5071186;28;20848;-56
2022/08/07 10:58:34;;;;;;;5.60;3.03;;;29.70;99.90;;;;;;5066441;28;20442;-56
2022/08/07 11:01:37;;;;;;;7.95;3.55;;;30.10;99.90;;;;;;5070326;28;20865;-57
2022/08/07 11:04:29;;;;;;;5.60;2.80;;;29.90;99.90;;;;;;5069971;28;20380;-56
2022/08/07 11:07:00;;;;;;;5.53;3.10;;;30.10;99.90;;;;;;5028468;28;20430;-56
2022/08/07 11:09:38;;;;;;;5.30;2.08;;;29.80;99.90;;;;;;5070454;28;20383;-56
2022/08/07 11:12:15;;;;;;;5.13;1.60;;;29.50;99.90;;;;;;5070640;28;20374;-58
2022/08/07 11:14:48;;;;;;;5.25;1.10;;;29.70;99.90;;;;;;5054027;28;20423;-57
2022/08/07 11:17:43;;;;;;;5.25;1.05;;;29.70;99.90;;;;;;5050902;28;20444;-58
2022/08/07 11:20:21;;;;;;;6.00;0.98;;;30.10;99.90;;;;;;5050996;28;20439;-57
2022/08/07 11:23:10;;;;;;;4.88;1.02;;;30.60;99.90;;;;;;5050441;28;20396;-57
2022/08/07 11:25:40;;;;;;;5.68;1.30;;;30.40;99.90;;;;;;5050937;28;20469;-57
2022/08/07 11:28:13;;;;;;;4.80;1.00;;;30.20;99.90;;;;;;5050232;28;20402;-57
2022/08/07 11:31:06;;;;;;;4.70;1.10;;;29.60;99.90;;;;;;5050218;28;20468;-62
2022/08/07 11:33:43;;;;;;;5.30;1.20;;;29.60;99.90;;;;;;5050245;28;20396;-57
2022/08/07 11:36:39;;;;;;;4.75;1.00;;;29.80;99.90;;;;;;5050158;28;20747;-56
2022/08/07 11:39:37;;;;;;;6.18;1.33;;;29.80;99.90;;;;;;5050526;28;20382;-58
2022/08/07 11:42:16;;;;;;;5.95;1.60;;;30.10;99.90;;;;;;5049238;28;20401;-56
2022/08/07 11:44:58;;;;;;;4.85;1.10;;;29.80;99.90;;;;;;5049528;28;20385;-58
2022/08/07 11:47:45;;;;;;;5.20;1.00;;;29.50;99.90;;;;;;5049847;28;20439;-56
2022/08/07 11:50:19;;;;;;;5.30;1.10;;;29.70;99.90;;;;;;5050292;28;20374;-56
2022/08/07 11:53:01;;;;;;;5.18;1.10;;;29.70;99.90;;;;;;5067456;28;20419;-57
2022/08/07 11:55:42;;;;;;;7.13;3.60;;;29.80;99.90;;;;;;5069944;28;20403;-56
2022/08/07 11:58:20;;;;;;;6.20;3.20;;;29.90;99.90;;;;;;5069709;28;20404;-56
2022/08/07 12:01:33;;;;;;;5.80;3.40;;;29.70;99.90;;;;;;5069930;28;20720;-57
2022/08/07 12:04:33;;;;;;;5.78;4.10;;;29.60;99.90;;;;;;5068878;28;20399;-57
2022/08/07 12:07:23;;;;;;;5.60;3.90;;;29.40;99.90;;;;;;5069465;28;20418;-56
2022/08/07 12:10:18;;;;;;;6.20;3.70;;;29.20;99.90;;;;;;5068353;28;20388;-56
2022/08/07 12:12:52;;;;;;;7.75;3.80;;;29.40;99.90;;;;;;5069378;28;20375;-57
2022/08/07 12:15:23;;;;;;;6.20;3.20;;;29.70;99.90;;;;;;5030389;28;20391;-56
2022/08/07 12:17:55;;;;;;;6.82;3.50;;;30.10;99.90;;;;;;5029152;28;20404;-57
2022/08/07 12:20:45;;;;;;;6.40;2.63;;;30.40;99.90;;;;;;5029930;28;20379;-57
2022/08/07 12:23:41;;;;;;;5.50;3.63;;;30.20;99.90;;;;;;5029679;28;20406;-57
2022/08/07 12:26:18;;;;;;;5.60;3.35;;;29.60;99.90;;;;;;5029581;28;20439;-57
2022/08/07 12:29:06;;;;;;;6.75;3.90;;;29.40;99.90;;;;;;5028773;28;20406;-57
2022/08/07 12:31:48;;;;;;;6.55;3.90;;;29.50;99.90;;;;;;5029545;28;20869;-57
2022/08/07 12:34:17;;;;;;;5.78;4.40;;;29.40;99.90;;;;;;5029684;28;20400;-57
2022/08/07 12:36:44;;;;;;;6.00;3.90;;;29.40;99.90;;;;;;5011664;28;20888;-54
2022/08/07 12:39:11;;;;;;;7.80;3.90;;;29.60;99.90;;;;;;5029594;28;20390;-57
2022/08/07 12:41:39;;;;;;;6.88;3.60;;;29.70;99.90;;;;;;5029543;28;20375;-57
2022/08/07 12:44:09;;;;;;;5.40;2.80;;;29.50;99.90;;;;;;5029762;28;20403;-57
2022/08/07 12:46:51;;;;;;;6.60;3.50;;;29.40;99.90;;;;;;5029478;28;20390;-59
2022/08/07 12:49:33;;;;;;;5.78;3.08;;;29.80;99.90;;;;;;5029512;28;20458;-60
2022/08/07 12:52:11;;;;;;;6.20;3.00;;;30.10;99.90;;;;;;5052780;28;20390;-56
2022/08/07 12:55:07;;;;;;;5.70;3.60;;;29.70;99.90;;;;;;5069660;28;20372;-57
2022/08/07 12:57:37;;;;;;;5.93;3.90;;;30.00;99.90;;;;;;5067435;28;20430;-57
2022/08/07 13:00:06;;;;;;;6.10;3.17;;;30.10;99.90;;;;;;5068752;28;20419;-57
2022/08/07 13:03:06;;;;;;;6.00;3.30;;;29.90;99.90;;;;;;5069519;28;20383;-56
2022/08/07 13:06:08;;;;;;;5.72;3.50;;;29.70;99.90;;;;;;5069362;28;20476;-57
2022/08/07 13:08:42;;;;;;;6.40;3.70;;;29.70;99.90;;;;;;5069723;28;20506;-57
2022/08/07 13:11:23;;;;;;;5.30;2.75;;;29.60;99.90;;;;;;5069418;28;20783;-57
2022/08/07 13:14:20;;;;;;;5.53;3.03;;;29.80;99.90;;;;;;5065865;28;20388;-57
2022/08/07 13:17:15;;;;;;;5.80;3.10;;;30.10;99.90;;;;;;5051532;28;20424;-57
2022/08/07 13:20:30;;;;;;;5.30;2.00;;;30.70;99.90;;;;;;5052925;28;20969;-63
2022/08/07 13:23:05;;;;;;;5.60;1.65;;;30.70;99.90;;;;;;5021227;28;20405;-57
2022/08/07 13:25:43;;;;;;;5.60;1.80;;;30.20;99.90;;;;;;5052887;28;20870;-57
2022/08/07 13:28:15;;;;;;;6.72;1.73;;;30.40;99.90;;;;;;5052723;28;20875;-57
2022/08/07 13:30:51;;;;;;;6.20;1.63;;;30.70;99.90;;;;;;5052110;28;20390;-63